createdAt,value
2023-05-12T00:01:24.247Z,101836.03
2023-05-12T00:03:53.638Z,101842.22
2023-05-12T00:06:21.983Z,101841.22
2023-05-12T00:08:49.598Z,101841.38
2023-05-12T00:11:18.677Z,101841.75
2023-05-12T00:13:46.423Z,101847.94
2023-05-12T00:16:15.772Z,101843.59
2023-05-12T00:18:43.582Z,101838.44
2023-05-12T00:21:12.261Z,101841.47
2023-05-12T00:23:39.950Z,101846.00
2023-05-12T00:26:08.019Z,101847.84
2023-05-12T00:28:36.981Z,101853.75
2023-05-12T00:31:05.260Z,101849.88
2023-05-12T00:33:33.131Z,101849.88
2023-05-12T00:36:03.461Z,101854.75
2023-05-12T00:38:31.137Z,101853.28
2023-05-12T00:40:58.713Z,101857.16
2023-05-12T00:43:26.632Z,101853.63
2023-05-12T00:45:55.681Z,101849.66
2023-05-12T00:48:23.606Z,101856.69
2023-05-12T00:50:51.403Z,101854.84
2023-05-12T00:53:19.002Z,101858.50
2023-05-12T00:55:46.628Z,101853.81
2023-05-12T00:58:14.235Z,101857.16
2023-05-12T01:00:41.829Z,101852.44
2023-05-12T01:03:10.975Z,101854.75
2023-05-12T01:05:48.630Z,101854.75
2023-05-12T01:08:18.122Z,101847.56
2023-05-12T01:10:46.206Z,101854.38
2023-05-12T01:13:14.093Z,101854.03
2023-05-12T01:15:47.936Z,101849.69
2023-05-12T01:18:20.600Z,101860.22
2023-05-12T01:20:48.911Z,101866.84
2023-05-12T01:23:20.075Z,101859.94
2023-05-12T01:25:50.058Z,101862.78
2023-05-12T01:28:19.431Z,101856.44
2023-05-12T01:30:47.887Z,101867.97
2023-05-12T01:33:15.574Z,101861.97
2023-05-12T01:35:43.249Z,101866.78
2023-05-12T01:38:10.807Z,101869.47
2023-05-12T01:40:38.399Z,101870.28
2023-05-12T01:43:05.973Z,101866.59
2023-05-12T01:45:34.945Z,101869.94
2023-05-12T01:48:02.580Z,101872.97
2023-05-12T01:50:30.408Z,101871.56
2023-05-12T01:52:57.998Z,101878.75
2023-05-12T01:55:25.652Z,101882.09
2023-05-12T01:57:53.314Z,101883.69
2023-05-12T02:00:21.584Z,101873.78
2023-05-12T02:02:51.027Z,101884.13
2023-05-12T02:05:18.757Z,101884.31
2023-05-12T02:07:46.377Z,101881.63
2023-05-12T02:10:13.977Z,101889.66
2023-05-12T02:12:41.690Z,101892.50
2023-05-12T02:15:10.545Z,101888.81
2023-05-12T02:17:38.177Z,101895.03
2023-05-12T02:20:08.908Z,101903.03
2023-05-12T02:22:36.469Z,101896.84
2023-05-12T02:25:04.304Z,101906.94
2023-05-12T02:27:32.628Z,101904.41
2023-05-12T02:30:00.585Z,101903.13
2023-05-12T02:32:28.609Z,101908.53
2023-05-12T02:34:56.451Z,101909.84
2023-05-12T02:37:25.420Z,101917.25
2023-05-12T02:39:53.017Z,101916.56
2023-05-12T02:42:20.614Z,101928.31
2023-05-12T02:44:48.191Z,101920.44
2023-05-12T02:47:15.787Z,101915.72
2023-05-12T02:49:43.394Z,101922.13
2023-05-12T02:52:10.987Z,101920.63
2023-05-12T02:54:39.900Z,101918.13
2023-05-12T02:57:08.231Z,101917.97
2023-05-12T02:59:35.940Z,101917.50
2023-05-12T03:02:05.000Z,101923.84
2023-05-12T03:04:33.119Z,101923.84
2023-05-12T03:07:00.959Z,101909.19
2023-05-12T03:09:28.581Z,101919.88
2023-05-12T03:11:57.644Z,101921.72
2023-05-12T03:14:26.638Z,101922.91
2023-05-12T03:16:54.399Z,101911.53
2023-05-12T03:19:22.007Z,101920.75
2023-05-12T03:21:49.692Z,101917.97
2023-05-12T03:24:17.524Z,101925.84
2023-05-12T03:26:45.468Z,101919.66
2023-05-12T03:29:14.458Z,101924.00
2023-05-12T03:31:42.975Z,101924.00
2023-05-12T03:34:10.998Z,101920.97
2023-05-12T03:36:38.690Z,101927.94
2023-05-12T03:39:08.724Z,101924.91
2023-05-12T03:41:36.400Z,101923.28
2023-05-12T03:44:05.583Z,101925.41
2023-05-12T03:46:34.696Z,101931.31
2023-05-12T03:49:02.552Z,101929.78
2023-05-12T03:51:30.408Z,101925.28
2023-05-12T03:53:58.047Z,101935.81
2023-05-12T03:56:25.646Z,101935.81
2023-05-12T03:58:53.227Z,101932.59
2023-05-12T04:01:20.874Z,101935.94
2023-05-12T04:03:49.994Z,101941.22
2023-05-12T04:06:17.693Z,101939.41
2023-05-12T04:08:45.400Z,101935.63
2023-05-12T04:11:13.978Z,101939.72
2023-05-12T04:13:41.575Z,101937.34
2023-05-12T04:16:09.796Z,101942.13
2023-05-12T04:18:37.598Z,101945.22
2023-05-12T04:21:06.758Z,101956.38
2023-05-12T04:23:34.416Z,101957.34
2023-05-12T04:26:04.921Z,101955.03
2023-05-12T04:28:32.530Z,101961.38
2023-05-12T04:31:03.377Z,101969.41
2023-05-12T04:33:31.015Z,101970.25
2023-05-12T04:35:58.892Z,101971.56
2023-05-12T04:38:28.308Z,101966.97
2023-05-12T04:40:59.042Z,101982.09
2023-05-12T04:45:59.849Z,101978.19
2023-05-12T04:48:28.019Z,101975.25
2023-05-12T04:50:55.709Z,101981.97
2023-05-12T04:53:23.334Z,101977.16
2023-05-12T04:55:52.586Z,101975.31
2023-05-12T04:58:20.182Z,101982.97
2023-05-12T05:00:47.921Z,101985.81
2023-05-12T05:03:15.608Z,101984.88
2023-05-12T05:05:43.265Z,101985.63
2023-05-12T05:08:10.878Z,101991.97
2023-05-12T05:10:38.596Z,101989.97
2023-05-12T05:13:07.580Z,101988.56
2023-05-12T05:15:35.208Z,101994.16
2023-05-12T05:18:03.027Z,101980.97
2023-05-12T05:20:32.769Z,101987.03
2023-05-12T05:23:01.295Z,101988.97
2023-05-12T05:25:29.012Z,101991.81
2023-05-12T05:27:56.675Z,102005.22
2023-05-12T05:30:25.738Z,102006.47
2023-05-12T05:32:53.569Z,102006.97
2023-05-12T05:35:21.675Z,102018.31
2023-05-12T05:37:50.797Z,102011.81
2023-05-12T05:40:18.521Z,102007.50
2023-05-12T05:42:46.133Z,102024.13
2023-05-12T05:45:13.774Z,102028.34
2023-05-12T05:47:43.137Z,102023.53
2023-05-12T05:50:11.494Z,102023.91
2023-05-12T05:52:39.125Z,102026.03
2023-05-12T05:55:07.916Z,102031.16
2023-05-12T05:57:35.519Z,102037.22
2023-05-12T06:00:04.881Z,102038.44
2023-05-12T06:02:33.361Z,102037.78
2023-05-12T06:05:02.450Z,102035.56
2023-05-12T06:07:30.730Z,102028.13
2023-05-12T06:09:59.030Z,102034.78
2023-05-12T06:12:26.756Z,102034.38
2023-05-12T06:14:54.389Z,102034.97
2023-05-12T06:17:22.038Z,102045.94
2023-05-12T06:19:50.516Z,102036.88
2023-05-12T06:22:19.645Z,102036.59
2023-05-12T06:24:47.290Z,102047.22
2023-05-12T06:27:14.887Z,102054.47
2023-05-12T06:29:42.502Z,102064.81
2023-05-12T06:32:10.219Z,102063.78
2023-05-12T06:34:37.869Z,102063.38
2023-05-12T06:37:05.736Z,102065.09
2023-05-12T06:39:34.730Z,102065.97
2023-05-12T06:42:02.310Z,102059.78
2023-05-12T06:44:29.939Z,102067.72
2023-05-12T06:46:57.669Z,102071.66
2023-05-12T06:49:25.448Z,102068.72
2023-05-12T06:51:53.115Z,102071.25
2023-05-12T06:54:20.826Z,102069.38
2023-05-12T06:56:49.746Z,102066.72
2023-05-12T06:59:19.309Z,102080.00
2023-05-12T07:01:47.945Z,102078.53
2023-05-12T07:04:15.679Z,102076.03
2023-05-12T07:06:43.353Z,102076.88
2023-05-12T07:09:11.075Z,102075.81
2023-05-12T07:11:38.718Z,102073.97
2023-05-12T07:14:07.695Z,102078.06
2023-05-12T07:16:35.429Z,102076.94
2023-05-12T07:19:03.298Z,102077.66
2023-05-12T07:21:30.961Z,102087.94
2023-05-12T07:23:59.173Z,102078.38
2023-05-12T07:26:28.732Z,102075.56
2023-05-12T07:28:56.474Z,102093.16
2023-05-12T07:31:25.498Z,102094.59
2023-05-12T07:33:53.267Z,102097.06
2023-05-12T07:36:22.050Z,102102.09
2023-05-12T07:38:49.828Z,102102.03
2023-05-12T07:41:18.023Z,102093.78
2023-05-12T07:43:46.041Z,102094.13
2023-05-12T07:46:13.832Z,102097.97
2023-05-12T07:48:42.926Z,102091.72
2023-05-12T07:51:10.648Z,102108.25
2023-05-12T07:53:38.240Z,102104.41
2023-05-12T07:56:08.091Z,102093.75
2023-05-12T07:58:35.700Z,102100.59
2023-05-12T08:01:05.958Z,102106.66
2023-05-12T08:03:33.887Z,102096.69
2023-05-12T08:06:03.513Z,102105.13
2023-05-12T08:08:31.662Z,102103.31
2023-05-12T08:10:59.284Z,102108.72
2023-05-12T08:13:27.265Z,102106.94
2023-05-12T08:15:55.155Z,102106.38
2023-05-12T08:18:22.760Z,102118.47
2023-05-12T08:20:50.876Z,102113.59
2023-05-12T08:23:20.319Z,102126.91
2023-05-12T08:25:48.641Z,102125.84
2023-05-12T08:28:16.288Z,102114.44
2023-05-12T08:30:45.111Z,102121.56
2023-05-12T08:33:12.988Z,102124.03
2023-05-12T08:35:40.782Z,102121.78
2023-05-12T08:38:09.039Z,102130.81
2023-05-12T08:40:46.159Z,102135.34
2023-05-12T08:43:24.278Z,102134.91
2023-05-12T08:45:52.097Z,102129.66
2023-05-12T08:48:22.529Z,102134.47
2023-05-12T08:50:52.343Z,102141.69
2023-05-12T08:53:22.125Z,102135.84
2023-05-12T08:57:08.190Z,102143.81
2023-05-12T08:58:42.164Z,102160.91
2023-05-12T09:01:14.700Z,102140.22
2023-05-12T09:03:43.264Z,102145.19
2023-05-12T09:06:12.552Z,102148.19
2023-05-12T09:08:41.739Z,102147.56
2023-05-12T09:11:12.925Z,102148.81
2023-05-12T09:13:55.671Z,102153.25
2023-05-12T09:16:25.985Z,102168.34
2023-05-12T09:18:55.387Z,102148.44
2023-05-12T09:21:23.759Z,102158.13
2023-05-12T09:23:56.330Z,102155.88
2023-05-12T09:26:26.363Z,102148.34
2023-05-12T09:28:55.865Z,102151.69
2023-05-12T09:31:25.930Z,102158.75
2023-05-12T09:33:53.643Z,102157.06
2023-05-12T09:36:22.615Z,102152.13
2023-05-12T09:38:59.960Z,102169.88
2023-05-12T09:41:28.933Z,102162.78
2023-05-12T09:43:56.705Z,102164.31
2023-05-12T09:46:26.056Z,102179.34
2023-05-12T09:48:56.893Z,102175.09
2023-05-12T09:51:25.375Z,102180.06
2023-05-12T09:53:53.355Z,102178.97
2023-05-12T09:56:21.306Z,102174.00
2023-05-12T09:58:50.886Z,102181.03
2023-05-12T10:01:23.712Z,102178.25
2023-05-12T10:03:54.870Z,102174.31
2023-05-12T10:06:28.227Z,102188.06
2023-05-12T10:09:05.334Z,102174.41
2023-05-12T10:11:33.664Z,102181.13
2023-05-12T10:14:03.092Z,102180.38
2023-05-12T10:16:31.299Z,102173.38
2023-05-12T10:19:00.243Z,102177.50
2023-05-12T10:21:28.569Z,102191.19
2023-05-12T10:23:57.837Z,102176.81
2023-05-12T10:26:25.677Z,102175.25
2023-05-12T10:28:54.079Z,102175.75
2023-05-12T10:31:24.395Z,102187.38
2023-05-12T10:33:59.733Z,102181.31
2023-05-12T10:36:28.001Z,102179.44
2023-05-12T10:38:56.208Z,102192.66
2023-05-12T10:41:31.548Z,102172.50
2023-05-12T10:43:59.429Z,102172.50
2023-05-12T10:46:30.106Z,102179.25
2023-05-12T10:49:01.184Z,102173.56
2023-05-12T10:51:31.100Z,102174.41
2023-05-12T10:54:00.984Z,102176.63
2023-05-12T10:56:30.513Z,102183.53
2023-05-12T10:59:19.031Z,102187.06
2023-05-12T11:02:00.987Z,102188.13
2023-05-12T11:04:42.064Z,102192.72
2023-05-12T11:07:14.104Z,102193.41
2023-05-12T11:09:56.787Z,102188.44
2023-05-12T11:12:27.981Z,102193.28
2023-05-12T11:14:55.927Z,102194.81
2023-05-12T11:17:25.500Z,102190.00
2023-05-12T11:19:53.602Z,102191.25
2023-05-12T11:22:22.794Z,102196.94
2023-05-12T11:24:52.422Z,102178.41
2023-05-12T11:27:22.521Z,102185.84
2023-05-12T11:29:57.815Z,102181.25
2023-05-12T11:32:27.321Z,102181.03
2023-05-12T11:34:55.060Z,102184.22
2023-05-12T11:37:23.844Z,102187.31
2023-05-12T11:39:52.890Z,102195.47
2023-05-12T11:42:22.314Z,102182.47
2023-05-12T11:44:51.998Z,102192.75
2023-05-12T11:47:21.200Z,102188.03
2023-05-12T11:49:52.009Z,102191.31
2023-05-12T11:52:23.312Z,102195.22
2023-05-12T11:54:51.992Z,102200.31
2023-05-12T11:57:26.989Z,102198.41
2023-05-12T11:59:58.938Z,102205.25
2023-05-12T12:02:27.345Z,102213.16
2023-05-12T12:04:56.816Z,102196.28
2023-05-12T12:07:31.669Z,102188.25
2023-05-12T12:10:00.838Z,102199.00
2023-05-12T12:12:28.503Z,102191.44
2023-05-12T12:14:59.911Z,102203.25
2023-05-12T12:17:30.839Z,102193.28
2023-05-12T12:20:00.139Z,102190.94
2023-05-12T12:22:27.924Z,102200.53
2023-05-12T12:24:55.540Z,102204.66
2023-05-12T12:27:23.173Z,102210.53
2023-05-12T12:29:51.301Z,102187.69
2023-05-12T12:32:18.940Z,102193.53
2023-05-12T12:34:48.391Z,102196.94
2023-05-12T12:37:17.628Z,102186.13
2023-05-12T12:39:47.574Z,102187.41
2023-05-12T12:42:15.697Z,102179.16
2023-05-12T12:44:43.786Z,102205.50
2023-05-12T12:47:11.501Z,102196.50
2023-05-12T12:49:39.086Z,102188.97
2023-05-12T12:52:07.275Z,102186.84
2023-05-12T12:54:36.366Z,102188.63
2023-05-12T12:57:04.553Z,102176.91
2023-05-12T12:59:32.147Z,102182.44
2023-05-12T13:02:00.537Z,102191.06
2023-05-12T13:04:28.182Z,102190.50
2023-05-12T13:06:55.754Z,102194.28
2023-05-12T13:09:23.420Z,102174.09
2023-05-12T13:11:52.868Z,102202.78
2023-05-12T13:14:21.505Z,102193.44
2023-05-12T13:16:49.166Z,102197.81
2023-05-12T13:19:17.492Z,102199.91
2023-05-12T13:21:45.299Z,102198.84
2023-05-12T13:24:12.927Z,102188.34
2023-05-12T13:26:40.530Z,102195.44
2023-05-12T13:29:09.550Z,102189.53
2023-05-12T13:31:38.646Z,102189.06
2023-05-12T13:34:06.222Z,102187.41
2023-05-12T13:36:34.728Z,102175.13
2023-05-12T13:39:03.528Z,102162.94
2023-05-12T13:41:31.556Z,102182.44
2023-05-12T13:43:59.162Z,102183.25
2023-05-12T13:46:28.115Z,102173.94
2023-05-12T13:48:55.936Z,102183.97
2023-05-12T13:51:23.903Z,102186.19
2023-05-12T13:53:51.522Z,102173.09
2023-05-12T13:56:19.245Z,102169.13
2023-05-12T13:58:46.859Z,102173.00
2023-05-12T14:01:14.520Z,102177.63
2023-05-12T14:03:43.584Z,102188.38
2023-05-12T14:06:12.529Z,102178.78
2023-05-12T14:08:41.483Z,102181.59
2023-05-12T14:11:09.976Z,102178.63
2023-05-12T14:13:37.668Z,102184.75
2023-05-12T14:16:06.166Z,102177.19
2023-05-12T14:18:33.909Z,102174.38
2023-05-12T14:21:02.966Z,102175.81
2023-05-12T14:23:30.585Z,102185.13
2023-05-12T14:25:58.164Z,102174.38
2023-05-12T14:28:25.860Z,102168.00
2023-05-12T14:30:53.573Z,102171.56
2023-05-12T14:33:21.475Z,102173.06
2023-05-12T14:35:59.313Z,102161.16
2023-05-12T14:38:35.741Z,102176.44
2023-05-12T14:41:03.965Z,102176.06
2023-05-12T14:43:31.681Z,102173.44
2023-05-12T14:45:59.313Z,102167.06
2023-05-12T14:48:27.146Z,102161.19
2023-05-12T14:50:55.575Z,102170.84
2023-05-12T14:53:23.773Z,102171.78
2023-05-12T14:55:52.959Z,102180.41
2023-05-12T14:58:21.587Z,102177.09
2023-05-12T15:00:51.020Z,102178.88
2023-05-12T15:03:20.893Z,102176.34
2023-05-12T15:06:04.773Z,102184.84
2023-05-12T15:08:33.839Z,102175.53
2023-05-12T15:11:02.873Z,102178.72
2023-05-12T15:13:30.564Z,102173.03
2023-05-12T15:15:58.185Z,102169.88
2023-05-12T15:18:25.963Z,102177.31
2023-05-12T15:20:53.672Z,102173.50
2023-05-12T15:23:22.114Z,102176.44
2023-05-12T15:25:49.792Z,102179.88
2023-05-12T15:28:18.797Z,102177.56
2023-05-12T15:30:54.723Z,102171.94
2023-05-12T15:33:22.353Z,102175.22
2023-05-12T15:35:49.996Z,102168.50
2023-05-12T15:38:17.856Z,102167.28
2023-05-12T15:40:45.785Z,102166.84
2023-05-12T15:43:13.372Z,102175.44
2023-05-12T15:45:42.328Z,102170.78
2023-05-12T15:48:10.685Z,102180.72
2023-05-12T15:50:38.379Z,102179.69
2023-05-12T15:53:06.909Z,102175.22
2023-05-12T15:55:34.629Z,102176.09
2023-05-12T15:58:03.499Z,102165.25
2023-05-12T16:00:31.190Z,102176.09
2023-05-12T16:03:01.870Z,102171.88
2023-05-12T16:05:29.624Z,102187.84
2023-05-12T16:07:57.367Z,102173.03
2023-05-12T16:10:24.933Z,102174.94
2023-05-12T16:12:52.592Z,102169.13
2023-05-12T16:15:20.721Z,102167.34
2023-05-12T16:17:48.775Z,102178.50
2023-05-12T16:20:18.154Z,102174.16
2023-05-12T16:22:45.805Z,102173.53
2023-05-12T16:25:13.387Z,102172.47
2023-05-12T16:27:41.080Z,102172.91
2023-05-12T16:30:09.764Z,102168.53
2023-05-12T16:32:37.477Z,102169.00
2023-05-12T16:35:05.439Z,102178.03
2023-05-12T16:37:34.461Z,102172.91
2023-05-12T16:40:02.379Z,102172.16
2023-05-12T16:42:30.853Z,102166.94
2023-05-12T16:44:58.730Z,102166.94
2023-05-12T16:47:26.477Z,102172.16
2023-05-12T16:49:54.990Z,102174.44
2023-05-12T16:52:22.620Z,102179.09
2023-05-12T16:54:51.845Z,102167.69
2023-05-12T16:57:20.127Z,102172.56
2023-05-12T16:59:48.494Z,102184.16
2023-05-12T17:02:16.167Z,102179.56
2023-05-12T17:04:44.629Z,102181.94
2023-05-12T17:07:12.367Z,102174.84
2023-05-12T17:09:40.018Z,102170.91
2023-05-12T17:12:09.818Z,102181.78
2023-05-12T17:14:37.438Z,102182.44
2023-05-12T17:17:05.195Z,102185.00
2023-05-12T17:19:33.350Z,102182.28
2023-05-12T17:22:01.225Z,102194.53
2023-05-12T17:24:29.020Z,102186.31
2023-05-12T17:26:57.579Z,102190.88
2023-05-12T17:29:26.805Z,102192.22
2023-05-12T17:31:54.449Z,102198.63
2023-05-12T17:34:22.062Z,102205.06
2023-05-12T17:36:50.089Z,102201.38
2023-05-12T17:39:17.711Z,102202.03
2023-05-12T17:41:45.288Z,102194.84
2023-05-12T17:44:12.898Z,102201.16
2023-05-12T17:46:41.881Z,102205.38
2023-05-12T17:49:09.530Z,102205.34
2023-05-12T17:51:37.105Z,102200.78
2023-05-12T17:54:04.763Z,102205.97
2023-05-12T17:56:32.447Z,102209.13
2023-05-12T17:59:00.080Z,102210.41
2023-05-12T18:01:27.803Z,102210.84
2023-05-12T18:03:56.999Z,102202.13
2023-05-12T18:06:24.703Z,102214.78
2023-05-12T18:08:52.293Z,102209.63
2023-05-12T18:11:19.879Z,102210.25
2023-05-12T18:13:47.484Z,102213.00
2023-05-12T18:16:25.249Z,102211.72
2023-05-12T18:18:57.303Z,102222.75
2023-05-12T18:21:25.200Z,102217.97
2023-05-12T18:23:52.854Z,102219.19
2023-05-12T18:26:20.758Z,102223.31
2023-05-12T18:28:48.525Z,102219.16
2023-05-12T18:31:19.247Z,102226.84
2023-05-12T18:33:47.822Z,102225.16
2023-05-12T18:36:17.230Z,102231.78
2023-05-12T18:38:45.336Z,102235.53
2023-05-12T18:41:13.253Z,102233.47
2023-05-12T18:43:41.830Z,102234.72
2023-05-12T18:46:09.499Z,102228.50
2023-05-12T18:48:37.310Z,102234.50
2023-05-12T18:51:05.441Z,102235.09
2023-05-12T18:53:34.691Z,102234.88
2023-05-12T18:56:02.402Z,102236.50
2023-05-12T18:58:30.036Z,102244.78
2023-05-12T19:00:58.019Z,102245.69
2023-05-12T19:03:25.659Z,102257.38
2023-05-12T19:05:53.655Z,102242.81
2023-05-12T19:08:21.361Z,102253.69
2023-05-12T19:10:50.382Z,102250.03
2023-05-12T19:13:18.004Z,102259.00
2023-05-12T19:15:45.655Z,102266.75
2023-05-12T19:18:13.304Z,102258.84
2023-05-12T19:20:40.981Z,102266.97
2023-05-12T19:23:08.666Z,102266.41
2023-05-12T19:25:36.268Z,102267.09
2023-05-12T19:28:05.918Z,102264.91
2023-05-12T19:30:33.643Z,102265.28
2023-05-12T19:33:01.297Z,102275.50
2023-05-12T19:35:28.985Z,102274.78
2023-05-12T19:37:56.583Z,102279.97
2023-05-12T19:40:24.261Z,102291.19
2023-05-12T19:42:52.965Z,102282.03
2023-05-12T19:45:22.302Z,102285.00
2023-05-12T19:47:50.245Z,102283.50
2023-05-12T19:50:18.685Z,102283.63
2023-05-12T19:52:46.359Z,102288.03
2023-05-12T19:55:13.980Z,102297.00
2023-05-12T19:57:42.260Z,102300.03
2023-05-12T20:00:11.022Z,102297.25
2023-05-12T20:02:40.883Z,102299.47
2023-05-12T20:05:09.213Z,102296.66
2023-05-12T20:07:36.849Z,102296.53
2023-05-12T20:10:04.960Z,102296.25
2023-05-12T20:12:33.000Z,102296.63
2023-05-12T20:15:00.584Z,102302.72
2023-05-12T20:17:28.353Z,102295.75
2023-05-12T20:19:57.361Z,102303.31
2023-05-12T20:22:25.123Z,102304.88
2023-05-12T20:24:52.780Z,102308.94
2023-05-12T20:27:20.515Z,102299.09
2023-05-12T20:29:49.030Z,102303.97
2023-05-12T20:32:16.733Z,102301.84
2023-05-12T20:34:44.639Z,102313.56
2023-05-12T20:37:13.972Z,102305.03
2023-05-12T20:39:41.630Z,102312.63
2023-05-12T20:42:10.021Z,102318.69
2023-05-12T20:44:37.879Z,102322.22
2023-05-12T20:47:06.446Z,102312.91
2023-05-12T20:49:34.059Z,102306.72
2023-05-12T20:52:01.675Z,102319.47
2023-05-12T20:54:30.620Z,102315.47
2023-05-12T20:56:58.231Z,102322.00
2023-05-12T20:59:25.841Z,102326.84
2023-05-12T21:01:53.920Z,102322.00
2023-05-12T21:04:21.736Z,102326.03
2023-05-12T21:06:49.868Z,102327.41
2023-05-12T21:09:18.885Z,102334.75
2023-05-12T21:11:47.962Z,102338.47
2023-05-12T21:14:15.599Z,102335.00
2023-05-12T21:16:43.241Z,102328.94
2023-05-12T21:19:10.919Z,102330.97
2023-05-12T21:21:38.530Z,102335.69
2023-05-12T21:24:06.909Z,102338.50
2023-05-12T21:26:34.538Z,102332.50
2023-05-12T21:29:03.613Z,102337.03
2023-05-12T21:31:31.406Z,102336.53
2023-05-12T21:33:59.015Z,102338.34
2023-05-12T21:36:26.924Z,102341.88
2023-05-12T21:38:54.510Z,102342.88
2023-05-12T21:41:22.370Z,102341.22
2023-05-12T21:43:49.944Z,102343.91
2023-05-12T21:46:18.966Z,102340.72
2023-05-12T21:48:47.036Z,102347.25
2023-05-12T21:51:14.849Z,102344.75
2023-05-12T21:53:42.935Z,102344.09
2023-05-12T21:56:10.583Z,102349.97
2023-05-12T21:58:38.584Z,102347.63
2023-05-12T22:01:06.319Z,102346.09
2023-05-12T22:03:35.308Z,102353.47
2023-05-12T22:06:02.925Z,102350.13
2023-05-12T22:08:30.502Z,102349.44
2023-05-12T22:10:58.156Z,102347.94
2023-05-12T22:13:25.753Z,102345.81
2023-05-12T22:15:53.447Z,102346.78
2023-05-12T22:18:21.154Z,102352.16
2023-05-12T22:20:50.072Z,102359.34
2023-05-12T22:23:17.659Z,102352.31
2023-05-12T22:25:45.234Z,102360.66
2023-05-12T22:28:12.828Z,102358.34
2023-05-12T22:30:43.400Z,102357.34
2023-05-12T22:33:11.097Z,102364.19
2023-05-12T22:35:38.772Z,102362.84
2023-05-12T22:38:07.767Z,102357.50
2023-05-12T22:40:35.476Z,102366.69
2023-05-12T22:43:03.107Z,102366.00
2023-05-12T22:45:30.876Z,102360.00
2023-05-12T22:47:58.911Z,102364.84
2023-05-12T22:50:26.608Z,102356.81
2023-05-12T22:52:57.132Z,102360.16
2023-05-12T22:55:28.175Z,102360.66
2023-05-12T22:57:55.756Z,102360.66
2023-05-12T23:00:23.529Z,102359.69
2023-05-12T23:02:51.354Z,102363.34
2023-05-12T23:05:19.170Z,102357.34
2023-05-12T23:07:46.886Z,102360.81
2023-05-12T23:10:14.890Z,102361.31
2023-05-12T23:12:43.843Z,102361.47
2023-05-12T23:15:12.146Z,102364.78
2023-05-12T23:17:39.770Z,102363.13
2023-05-12T23:20:09.079Z,102358.94
2023-05-12T23:22:36.690Z,102354.59
2023-05-12T23:25:04.376Z,102355.75
2023-05-12T23:27:31.997Z,102364.94
2023-05-12T23:30:00.973Z,102355.25
2023-05-12T23:32:29.090Z,102356.56
2023-05-12T23:34:56.854Z,102350.38
2023-05-12T23:37:25.368Z,102355.72
2023-05-12T23:39:52.992Z,102357.06
2023-05-12T23:42:20.592Z,102354.72
2023-05-12T23:44:48.239Z,102351.72
2023-05-12T23:47:17.858Z,102359.03
2023-05-12T23:49:45.441Z,102361.03
2023-05-12T23:52:13.005Z,102356.69
2023-05-12T23:54:40.645Z,102349.84
2023-05-12T23:57:08.265Z,102356.16
2023-05-12T23:59:36.148Z,102344.16
